createdAt,value
2023-04-27T00:00:22.868Z,6.09
2023-04-27T00:01:24.447Z,6.09
2023-04-27T00:02:26.661Z,6.10
2023-04-27T00:03:28.496Z,6.05
2023-04-27T00:04:30.489Z,6.07
2023-04-27T00:05:36.483Z,6.02
2023-04-27T00:06:38.182Z,6.07
2023-04-27T00:07:39.879Z,5.89
2023-04-27T00:08:41.619Z,5.88
2023-04-27T00:09:43.205Z,5.91
2023-04-27T00:10:44.792Z,5.92
2023-04-27T00:11:46.537Z,5.73
2023-04-27T00:12:48.195Z,5.83
2023-04-27T00:13:49.860Z,5.86
2023-04-27T00:14:51.449Z,5.82
2023-04-27T00:15:53.189Z,5.75
2023-04-27T00:16:55.820Z,5.76
2023-04-27T00:17:57.754Z,5.76
2023-04-27T00:18:59.523Z,5.81
2023-04-27T00:20:01.650Z,5.75
2023-04-27T00:21:03.344Z,5.63
2023-04-27T00:22:04.939Z,5.63
2023-04-27T00:23:07.024Z,5.66
2023-04-27T00:24:08.757Z,5.69
2023-04-27T00:25:10.778Z,5.71
2023-04-27T00:26:12.366Z,5.78
2023-04-27T00:27:14.039Z,5.69
2023-04-27T00:28:15.713Z,5.58
2023-04-27T00:29:17.352Z,5.52
2023-04-27T00:30:18.966Z,5.54
2023-04-27T00:31:20.886Z,5.47
2023-04-27T00:32:22.636Z,5.52
2023-04-27T00:33:24.360Z,5.55
2023-04-27T00:34:26.014Z,5.54
2023-04-27T00:35:27.712Z,5.51
2023-04-27T00:36:29.361Z,5.59
2023-04-27T00:37:31.111Z,5.45
2023-04-27T00:38:32.701Z,5.56
2023-04-27T00:39:34.422Z,5.55
2023-04-27T00:40:36.043Z,5.58
2023-04-27T00:41:39.438Z,5.48
2023-04-27T00:42:41.067Z,5.38
2023-04-27T00:43:43.742Z,5.34
2023-04-27T00:44:48.342Z,5.34
2023-04-27T00:45:49.958Z,5.32
2023-04-27T00:46:52.369Z,5.34
2023-04-27T00:47:54.052Z,5.24
2023-04-27T00:48:56.241Z,5.24
2023-04-27T00:49:57.922Z,5.26
2023-04-27T00:50:59.510Z,5.23
2023-04-27T00:52:01.103Z,5.30
2023-04-27T00:53:02.704Z,5.26
2023-04-27T00:54:04.798Z,5.24
2023-04-27T00:55:07.330Z,5.18
2023-04-27T00:56:09.012Z,5.13
2023-04-27T00:57:10.905Z,4.99
2023-04-27T00:58:12.489Z,5.04
2023-04-27T00:59:14.305Z,5.06
2023-04-27T01:00:16.101Z,5.14
2023-04-27T01:01:17.992Z,5.17
2023-04-27T01:02:19.852Z,5.07
2023-04-27T01:03:22.171Z,4.94
2023-04-27T01:04:24.100Z,4.90
2023-04-27T01:05:25.815Z,4.93
2023-04-27T01:06:29.805Z,4.99
2023-04-27T01:07:31.394Z,4.94
2023-04-27T01:08:33.020Z,4.91
2023-04-27T01:09:34.798Z,4.84
2023-04-27T01:10:37.698Z,4.90
2023-04-27T01:11:39.374Z,4.93
2023-04-27T01:12:41.237Z,4.94
2023-04-27T01:13:42.817Z,4.94
2023-04-27T01:14:44.457Z,4.99
2023-04-27T01:15:46.126Z,5.03
2023-04-27T01:16:47.922Z,5.01
2023-04-27T01:17:49.558Z,4.97
2023-04-27T01:18:51.195Z,4.99
2023-04-27T01:19:55.354Z,5.00
2023-04-27T01:20:57.021Z,4.99
2023-04-27T01:21:58.623Z,5.00
2023-04-27T01:23:00.225Z,5.04
2023-04-27T01:24:01.831Z,5.06
2023-04-27T01:25:03.481Z,5.00
2023-04-27T01:26:05.159Z,5.04
2023-04-27T01:27:06.750Z,5.03
2023-04-27T01:28:08.349Z,5.03
2023-04-27T01:29:09.956Z,4.97
2023-04-27T01:30:11.664Z,5.03
2023-04-27T01:31:13.438Z,5.04
2023-04-27T01:32:15.048Z,5.04
2023-04-27T01:33:16.790Z,5.03
2023-04-27T01:34:18.378Z,5.03
2023-04-27T01:35:20.059Z,4.97
2023-04-27T01:36:21.694Z,4.97
2023-04-27T01:37:23.548Z,5.04
2023-04-27T01:38:25.246Z,5.10
2023-04-27T01:39:27.005Z,5.10
2023-04-27T01:40:28.645Z,5.07
2023-04-27T01:41:30.255Z,5.11
2023-04-27T01:42:31.908Z,5.13
2023-04-27T01:43:33.554Z,5.14
2023-04-27T01:44:35.157Z,5.20
2023-04-27T01:45:36.742Z,5.17
2023-04-27T01:46:38.351Z,5.26
2023-04-27T01:47:40.189Z,5.20
2023-04-27T01:48:41.911Z,5.20
2023-04-27T01:49:43.884Z,5.13
2023-04-27T01:50:45.567Z,5.11
2023-04-27T01:51:47.227Z,4.99
2023-04-27T01:52:48.859Z,5.03
2023-04-27T01:53:50.429Z,5.07
2023-04-27T01:54:52.075Z,5.03
2023-04-27T01:55:53.739Z,5.06
2023-04-27T01:56:55.605Z,5.07
2023-04-27T01:57:57.250Z,5.10
2023-04-27T01:58:58.901Z,5.18
2023-04-27T02:00:00.516Z,5.13
2023-04-27T02:01:02.089Z,5.14
2023-04-27T02:02:04.102Z,5.20
2023-04-27T02:03:06.017Z,5.16
2023-04-27T02:04:07.904Z,5.18
2023-04-27T02:05:09.876Z,5.14
2023-04-27T02:06:11.509Z,5.09
2023-04-27T02:07:13.169Z,5.10
2023-04-27T02:08:14.811Z,5.09
2023-04-27T02:09:16.523Z,5.09
2023-04-27T02:10:18.182Z,5.11
2023-04-27T02:11:19.772Z,5.13
2023-04-27T02:12:21.504Z,5.17
2023-04-27T02:13:23.158Z,5.10
2023-04-27T02:14:24.772Z,5.11
2023-04-27T02:15:26.393Z,5.13
2023-04-27T02:16:28.011Z,5.17
2023-04-27T02:17:29.758Z,5.17
2023-04-27T02:18:32.623Z,5.18
2023-04-27T02:19:34.251Z,5.20
2023-04-27T02:20:35.972Z,5.21
2023-04-27T02:21:38.071Z,5.26
2023-04-27T02:22:45.720Z,5.23
2023-04-27T02:23:47.405Z,5.18
2023-04-27T02:24:49.033Z,5.21
2023-04-27T02:25:50.689Z,5.21
2023-04-27T02:26:52.269Z,5.09
2023-04-27T02:27:53.927Z,5.13
2023-04-27T02:28:59.298Z,5.13
2023-04-27T02:30:05.313Z,5.14
2023-04-27T02:31:07.368Z,5.14
2023-04-27T02:32:09.018Z,5.10
2023-04-27T02:33:10.659Z,5.13
2023-04-27T02:34:12.416Z,5.17
2023-04-27T02:35:14.236Z,5.16
2023-04-27T02:36:15.833Z,5.23
2023-04-27T02:37:17.540Z,5.23
2023-04-27T02:38:19.140Z,5.17
2023-04-27T02:39:20.791Z,5.23
2023-04-27T02:40:22.448Z,5.27
2023-04-27T02:41:24.214Z,5.23
2023-04-27T02:42:25.844Z,5.26
2023-04-27T02:43:27.493Z,5.20
2023-04-27T02:44:29.662Z,5.09
2023-04-27T02:45:31.570Z,5.16
2023-04-27T02:46:33.171Z,5.16
2023-04-27T02:47:34.998Z,5.13
2023-04-27T02:48:36.677Z,5.11
2023-04-27T02:49:38.506Z,5.00
2023-04-27T02:50:43.670Z,4.99
2023-04-27T02:51:45.490Z,4.91
2023-04-27T02:52:47.096Z,4.94
2023-04-27T02:53:48.733Z,4.91
2023-04-27T02:54:50.338Z,4.87
2023-04-27T02:55:52.016Z,4.89
2023-04-27T02:56:53.666Z,4.91
2023-04-27T02:57:55.458Z,4.91
2023-04-27T02:58:57.208Z,4.89
2023-04-27T02:59:58.997Z,4.89
2023-04-27T03:01:01.562Z,4.80
2023-04-27T03:02:03.449Z,4.86
2023-04-27T03:03:05.258Z,4.84
2023-04-27T03:04:07.363Z,4.84
2023-04-27T03:05:09.192Z,4.80
2023-04-27T03:06:10.856Z,4.86
2023-04-27T03:07:13.036Z,4.80
2023-04-27T03:08:14.765Z,4.76
2023-04-27T03:09:16.720Z,4.77
2023-04-27T03:10:18.543Z,4.76
2023-04-27T03:11:20.158Z,4.72
2023-04-27T03:12:21.815Z,4.67
2023-04-27T03:13:23.400Z,4.65
2023-04-27T03:14:25.019Z,4.67
2023-04-27T03:15:26.724Z,4.65
2023-04-27T03:16:28.488Z,4.67
2023-04-27T03:17:30.198Z,4.69
2023-04-27T03:18:31.992Z,4.66
2023-04-27T03:19:33.595Z,4.60
2023-04-27T03:20:35.486Z,4.60
2023-04-27T03:21:37.114Z,4.53
2023-04-27T03:22:38.890Z,4.53
2023-04-27T03:23:40.662Z,4.50
2023-04-27T03:24:43.073Z,4.56
2023-04-27T03:25:44.725Z,4.53
2023-04-27T03:26:46.314Z,4.53
2023-04-27T03:27:47.927Z,4.56
2023-04-27T03:28:49.511Z,4.50
2023-04-27T03:29:54.282Z,4.45
2023-04-27T03:30:55.888Z,4.50
2023-04-27T03:31:57.656Z,4.50
2023-04-27T03:32:59.371Z,4.53
2023-04-27T03:34:01.003Z,4.50
2023-04-27T03:35:03.265Z,4.53
2023-04-27T03:36:05.501Z,4.53
2023-04-27T03:37:07.269Z,4.55
2023-04-27T03:38:08.861Z,4.46
2023-04-27T03:39:10.484Z,4.56
2023-04-27T03:40:12.869Z,4.53
2023-04-27T03:41:14.522Z,4.50
2023-04-27T03:42:16.107Z,4.48
2023-04-27T03:43:18.466Z,4.49
2023-04-27T03:44:20.075Z,4.49
2023-04-27T03:45:22.554Z,4.50
2023-04-27T03:46:24.250Z,4.52
2023-04-27T03:47:26.029Z,4.52
2023-04-27T03:48:27.962Z,4.53
2023-04-27T03:49:29.540Z,4.58
2023-04-27T03:50:31.182Z,4.53
2023-04-27T03:51:33.441Z,4.50
2023-04-27T03:52:35.117Z,4.49
2023-04-27T03:53:36.734Z,4.55
2023-04-27T03:54:38.330Z,4.62
2023-04-27T03:55:43.427Z,4.65
2023-04-27T03:56:45.035Z,4.66
2023-04-27T03:57:47.616Z,4.60
2023-04-27T03:58:49.222Z,4.56
2023-04-27T03:59:50.891Z,4.66
2023-04-27T04:00:52.522Z,4.80
2023-04-27T04:01:55.527Z,4.84
2023-04-27T04:02:57.777Z,4.81
2023-04-27T04:03:59.782Z,4.77
2023-04-27T04:05:01.614Z,4.70
2023-04-27T04:06:06.226Z,4.67
2023-04-27T04:07:07.848Z,4.83
2023-04-27T04:08:09.478Z,4.99
2023-04-27T04:09:11.444Z,5.00
2023-04-27T04:10:13.261Z,5.07
2023-04-27T04:11:14.879Z,5.11
2023-04-27T04:12:16.679Z,5.10
2023-04-27T04:13:18.258Z,5.20
2023-04-27T04:14:19.834Z,5.23
2023-04-27T04:15:21.497Z,5.17
2023-04-27T04:16:23.205Z,5.23
2023-04-27T04:17:24.950Z,5.40
2023-04-27T04:18:26.626Z,5.42
2023-04-27T04:19:28.298Z,5.45
2023-04-27T04:20:29.949Z,5.58
2023-04-27T04:21:32.129Z,5.61
2023-04-27T04:22:33.702Z,5.63
2023-04-27T04:23:35.930Z,5.52
2023-04-27T04:24:37.704Z,5.62
2023-04-27T04:25:40.412Z,5.71
2023-04-27T04:26:42.063Z,5.79
2023-04-27T04:27:43.705Z,6.01
2023-04-27T04:28:45.818Z,6.22
2023-04-27T04:29:47.336Z,6.34
2023-04-27T04:30:49.534Z,6.57
2023-04-27T04:31:51.906Z,6.88
2023-04-27T04:32:53.582Z,7.22
2023-04-27T04:33:55.293Z,6.98
2023-04-27T04:34:57.773Z,7.11
2023-04-27T04:35:59.379Z,6.95
2023-04-27T04:37:01.024Z,7.14
2023-04-27T04:38:02.591Z,7.33
2023-04-27T04:39:05.453Z,7.43
2023-04-27T04:40:10.819Z,7.26
2023-04-27T04:41:12.571Z,7.59
2023-04-27T04:42:14.295Z,7.50
2023-04-27T04:43:16.163Z,7.55
2023-04-27T04:44:17.754Z,7.45
2023-04-27T04:45:19.483Z,7.09
2023-04-27T04:46:22.411Z,7.08
2023-04-27T04:47:24.107Z,7.04
2023-04-27T04:48:25.715Z,7.08
2023-04-27T04:49:27.313Z,7.45
2023-04-27T04:50:29.236Z,7.83
2023-04-27T04:51:30.899Z,7.94
2023-04-27T04:52:32.784Z,8.34
2023-04-27T04:53:34.354Z,8.79
2023-04-27T04:54:35.987Z,8.99
2023-04-27T04:55:37.621Z,9.12
2023-04-27T04:56:39.287Z,8.97
2023-04-27T04:57:41.092Z,9.06
2023-04-27T04:58:42.675Z,9.12
2023-04-27T04:59:44.313Z,9.27
2023-04-27T05:00:45.951Z,9.47
2023-04-27T05:01:47.833Z,9.50
2023-04-27T05:02:49.615Z,9.36
2023-04-27T05:03:51.575Z,9.33
2023-04-27T05:04:53.403Z,9.65
2023-04-27T05:05:55.070Z,9.68
2023-04-27T05:06:56.759Z,9.85
2023-04-27T05:07:58.347Z,10.06
2023-04-27T05:08:59.978Z,9.74
2023-04-27T05:10:01.620Z,10.53
2023-04-27T05:11:03.341Z,10.64
2023-04-27T05:12:05.247Z,10.61
2023-04-27T05:13:07.293Z,11.18
2023-04-27T05:14:08.995Z,10.66
2023-04-27T05:15:11.184Z,11.04
2023-04-27T05:16:12.806Z,11.24
2023-04-27T05:17:14.608Z,10.81
2023-04-27T05:18:16.233Z,10.89
2023-04-27T05:19:18.609Z,11.50
2023-04-27T05:20:20.770Z,11.99
2023-04-27T05:21:22.426Z,12.58
2023-04-27T05:22:24.047Z,12.77
2023-04-27T05:23:25.781Z,12.77
2023-04-27T05:24:27.486Z,13.67
2023-04-27T05:25:32.723Z,14.17
2023-04-27T05:26:34.331Z,14.18
2023-04-27T05:27:35.897Z,14.10
2023-04-27T05:28:37.493Z,14.42
2023-04-27T05:29:39.182Z,14.32
2023-04-27T05:30:40.878Z,14.38
2023-04-27T05:31:43.383Z,14.21
2023-04-27T05:32:49.114Z,14.09
2023-04-27T05:33:50.770Z,13.96
2023-04-27T05:34:53.057Z,14.17
2023-04-27T05:35:54.653Z,13.30
2023-04-27T05:36:56.313Z,13.60
2023-04-27T05:37:58.091Z,13.76
2023-04-27T05:38:59.657Z,13.56
2023-04-27T05:40:01.349Z,13.12
2023-04-27T05:41:02.935Z,13.40
2023-04-27T05:42:04.832Z,13.34
2023-04-27T05:43:06.553Z,13.28
2023-04-27T05:44:08.185Z,13.34
2023-04-27T05:45:10.085Z,12.99
2023-04-27T05:46:15.067Z,12.63
2023-04-27T05:47:16.774Z,12.60
2023-04-27T05:48:18.495Z,12.80
2023-04-27T05:49:20.070Z,12.67
2023-04-27T05:50:21.802Z,12.65
2023-04-27T05:51:23.374Z,12.60
2023-04-27T05:52:30.872Z,12.65
2023-04-27T05:53:35.389Z,12.69
2023-04-27T05:54:36.986Z,12.50
2023-04-27T05:55:39.407Z,12.33
2023-04-27T05:56:41.212Z,12.37
2023-04-27T05:57:42.867Z,12.46
2023-04-27T05:58:44.568Z,12.43
2023-04-27T05:59:46.345Z,12.40
2023-04-27T06:00:47.939Z,12.46
2023-04-27T06:01:49.871Z,12.19
2023-04-27T06:02:51.699Z,12.15
2023-04-27T06:03:53.472Z,12.06
2023-04-27T06:04:55.234Z,11.93
2023-04-27T06:06:00.522Z,11.66
2023-04-27T06:07:04.335Z,11.79
2023-04-27T06:08:06.220Z,11.57
2023-04-27T06:09:08.462Z,11.68
2023-04-27T06:10:11.196Z,11.73
2023-04-27T06:11:12.982Z,11.82
2023-04-27T06:12:14.567Z,11.95
2023-04-27T06:13:17.320Z,11.86
2023-04-27T06:14:19.212Z,11.95
2023-04-27T06:15:21.055Z,12.09
2023-04-27T06:16:23.274Z,11.76
2023-04-27T06:17:24.968Z,11.36
2023-04-27T06:18:26.610Z,11.64
2023-04-27T06:19:28.265Z,11.52
2023-04-27T06:20:29.976Z,11.50
2023-04-27T06:21:33.678Z,11.69
2023-04-27T06:22:38.559Z,11.82
2023-04-27T06:23:40.196Z,11.93
2023-04-27T06:24:42.521Z,12.02
2023-04-27T06:25:44.386Z,11.93
2023-04-27T06:26:46.070Z,11.92
2023-04-27T06:27:47.746Z,11.89
2023-04-27T06:28:49.335Z,12.15
2023-04-27T06:29:50.899Z,12.20
2023-04-27T06:30:53.202Z,12.17
2023-04-27T06:31:54.901Z,11.96
2023-04-27T06:32:56.535Z,11.92
2023-04-27T06:33:58.190Z,11.86
2023-04-27T06:34:59.779Z,11.99
2023-04-27T06:36:02.358Z,12.19
2023-04-27T06:37:04.036Z,12.25
2023-04-27T06:38:07.592Z,12.19
2023-04-27T06:39:09.662Z,12.03
2023-04-27T06:40:11.679Z,12.07
2023-04-27T06:41:13.492Z,12.05
2023-04-27T06:42:15.100Z,12.00
2023-04-27T06:43:16.742Z,11.99
2023-04-27T06:44:18.393Z,12.10
2023-04-27T06:45:19.978Z,12.13
2023-04-27T06:46:21.648Z,12.02
2023-04-27T06:47:23.266Z,11.97
2023-04-27T06:48:24.958Z,12.07
2023-04-27T06:49:26.844Z,12.17
2023-04-27T06:50:29.402Z,12.32
2023-04-27T06:51:31.973Z,12.19
2023-04-27T06:52:34.016Z,12.44
2023-04-27T06:53:35.878Z,12.53
2023-04-27T06:54:37.637Z,12.27
2023-04-27T06:55:41.598Z,12.30
2023-04-27T06:56:44.907Z,12.32
2023-04-27T06:57:46.496Z,12.23
2023-04-27T06:58:48.090Z,12.32
2023-04-27T06:59:50.759Z,12.48
2023-04-27T07:00:52.837Z,12.38
2023-04-27T07:01:54.814Z,12.32
2023-04-27T07:02:56.438Z,12.29
2023-04-27T07:03:58.392Z,12.50
2023-04-27T07:05:00.331Z,12.41
2023-04-27T07:06:02.165Z,12.60
2023-04-27T07:07:03.844Z,12.44
2023-04-27T07:08:08.470Z,12.47
2023-04-27T07:09:20.172Z,12.56
2023-04-27T07:10:27.986Z,12.58
2023-04-27T07:11:29.631Z,12.20
2023-04-27T07:12:31.373Z,12.32
2023-04-27T07:13:32.975Z,12.27
2023-04-27T07:14:34.645Z,12.30
2023-04-27T07:15:36.941Z,12.37
2023-04-27T07:16:39.135Z,12.44
2023-04-27T07:17:41.514Z,12.51
2023-04-27T07:18:44.018Z,12.57
2023-04-27T07:19:45.678Z,12.56
2023-04-27T07:20:47.274Z,12.61
2023-04-27T07:21:50.153Z,12.57
2023-04-27T07:22:51.880Z,12.60
2023-04-27T07:23:54.397Z,12.61
2023-04-27T07:24:57.344Z,12.71
2023-04-27T07:25:59.236Z,12.74
2023-04-27T07:27:02.719Z,12.50
2023-04-27T07:28:04.425Z,12.64
2023-04-27T07:29:18.823Z,12.77
2023-04-27T07:30:25.044Z,12.60
2023-04-27T07:31:26.780Z,12.68
2023-04-27T07:32:28.566Z,12.69
2023-04-27T07:33:30.307Z,12.60
2023-04-27T07:34:41.177Z,12.69
2023-04-27T07:35:46.968Z,12.73
2023-04-27T07:36:48.549Z,12.74
2023-04-27T07:37:51.400Z,12.91
2023-04-27T07:38:53.206Z,12.95
2023-04-27T07:39:54.930Z,13.09
2023-04-27T07:41:01.959Z,13.11
2023-04-27T07:42:03.811Z,13.08
2023-04-27T07:43:05.620Z,12.98
2023-04-27T07:44:07.258Z,12.80
2023-04-27T07:45:09.919Z,12.74
2023-04-27T07:46:12.456Z,12.80
2023-04-27T07:47:14.194Z,12.69
2023-04-27T07:48:16.263Z,12.71
2023-04-27T07:49:17.924Z,12.84
2023-04-27T07:50:24.454Z,12.83
2023-04-27T07:51:28.709Z,12.88
2023-04-27T07:52:30.733Z,12.95
2023-04-27T07:53:35.593Z,13.07
2023-04-27T07:54:37.230Z,12.99
2023-04-27T07:55:38.878Z,13.01
2023-04-27T07:56:42.124Z,13.04
2023-04-27T07:57:43.831Z,13.01
2023-04-27T07:58:45.919Z,12.92
2023-04-27T07:59:47.680Z,12.98
2023-04-27T08:00:49.341Z,13.09
2023-04-27T08:01:51.378Z,12.99
2023-04-27T08:02:54.053Z,12.83
2023-04-27T08:03:56.045Z,12.88
2023-04-27T08:04:58.210Z,13.07
2023-04-27T08:06:00.522Z,13.08
2023-04-27T08:07:02.652Z,12.76
2023-04-27T08:08:05.578Z,12.91
2023-04-27T08:09:07.915Z,12.69
2023-04-27T08:10:09.661Z,12.77
2023-04-27T08:11:12.065Z,12.76
2023-04-27T08:12:13.764Z,12.71
2023-04-27T08:13:15.727Z,12.74
2023-04-27T08:14:17.348Z,12.92
2023-04-27T08:15:19.078Z,13.05
2023-04-27T08:16:20.875Z,13.04
2023-04-27T08:17:22.612Z,13.01
2023-04-27T08:18:25.542Z,12.98
2023-04-27T08:19:27.146Z,12.71
2023-04-27T08:20:28.822Z,12.87
2023-04-27T08:21:30.538Z,13.05
2023-04-27T08:22:32.196Z,12.95
2023-04-27T08:23:33.916Z,12.98
2023-04-27T08:24:36.248Z,13.05
2023-04-27T08:25:37.844Z,13.05
2023-04-27T08:26:41.240Z,13.02
2023-04-27T08:27:43.007Z,12.98
2023-04-27T08:28:44.581Z,13.08
2023-04-27T08:29:47.936Z,13.16
2023-04-27T08:30:49.595Z,13.16
2023-04-27T08:31:51.307Z,13.08
2023-04-27T08:32:54.801Z,12.97
2023-04-27T08:33:56.677Z,12.99
2023-04-27T08:34:58.265Z,13.01
2023-04-27T08:35:59.902Z,12.91
2023-04-27T08:37:03.311Z,12.95
2023-04-27T08:38:04.924Z,12.97
2023-04-27T08:39:07.863Z,13.01
2023-04-27T08:40:10.936Z,13.07
2023-04-27T08:41:22.527Z,12.94
2023-04-27T08:42:24.460Z,12.94
2023-04-27T08:43:26.136Z,12.94
2023-04-27T08:44:27.746Z,12.71
2023-04-27T08:45:29.371Z,12.87
2023-04-27T08:46:31.731Z,12.71
2023-04-27T08:47:42.597Z,12.83
2023-04-27T08:48:44.732Z,12.94
2023-04-27T08:49:46.546Z,12.99
2023-04-27T08:50:48.834Z,13.09
2023-04-27T08:51:50.485Z,13.20
2023-04-27T08:52:53.009Z,13.19
2023-04-27T08:53:56.404Z,13.19
2023-04-27T08:54:58.021Z,13.12
2023-04-27T08:55:59.616Z,13.09
2023-04-27T08:57:03.209Z,13.14
2023-04-27T08:58:04.809Z,13.16
2023-04-27T08:59:16.746Z,13.11
2023-04-27T09:00:20.183Z,13.15
2023-04-27T09:01:22.321Z,13.19
2023-04-27T09:02:24.919Z,13.23
2023-04-27T09:03:26.779Z,13.18
2023-04-27T09:04:42.016Z,13.14
2023-04-27T09:06:00.659Z,12.95
2023-04-27T09:07:12.988Z,12.94
2023-04-27T09:08:14.637Z,12.97
2023-04-27T09:09:23.812Z,13.07
2023-04-27T09:10:25.713Z,12.99
2023-04-27T09:11:38.177Z,13.04
2023-04-27T09:12:39.824Z,13.07
2023-04-27T09:13:45.073Z,13.05
2023-04-27T09:15:00.393Z,13.05
2023-04-27T09:16:02.082Z,13.15
2023-04-27T09:17:03.747Z,13.02
2023-04-27T09:18:05.436Z,13.09
2023-04-27T09:19:07.177Z,13.08
2023-04-27T09:20:12.891Z,13.07
2023-04-27T09:21:25.555Z,13.14
2023-04-27T09:22:27.140Z,13.15
2023-04-27T09:23:37.167Z,13.20
2023-04-27T09:24:38.905Z,13.22
2023-04-27T09:25:40.586Z,13.19
2023-04-27T09:26:43.073Z,13.29
2023-04-27T09:27:44.692Z,13.22
2023-04-27T09:28:48.383Z,13.19
2023-04-27T09:29:49.965Z,13.14
2023-04-27T09:30:55.278Z,13.16
2023-04-27T09:31:56.993Z,13.18
2023-04-27T09:33:01.631Z,13.08
2023-04-27T09:34:04.022Z,12.97
2023-04-27T09:35:07.701Z,12.94
2023-04-27T09:36:09.487Z,12.94
2023-04-27T09:37:11.166Z,12.81
2023-04-27T09:38:13.427Z,12.84
2023-04-27T09:39:16.204Z,12.88
2023-04-27T09:40:18.930Z,12.89
2023-04-27T09:41:20.539Z,12.97
2023-04-27T09:42:22.137Z,13.05
2023-04-27T09:43:24.896Z,13.20
2023-04-27T09:44:27.013Z,13.19
2023-04-27T09:45:28.680Z,13.29
2023-04-27T09:46:30.437Z,13.29
2023-04-27T09:47:33.295Z,13.29
2023-04-27T09:48:34.899Z,13.20
2023-04-27T09:49:36.775Z,13.25
2023-04-27T09:50:39.792Z,13.30
2023-04-27T09:51:41.465Z,13.42
2023-04-27T09:52:43.130Z,13.48
2023-04-27T09:53:52.992Z,13.49
2023-04-27T09:54:54.968Z,13.32
2023-04-27T09:56:02.696Z,13.25
2023-04-27T09:57:13.110Z,13.34
2023-04-27T09:58:42.339Z,13.46
2023-04-27T09:59:46.584Z,13.43
2023-04-27T10:01:07.840Z,13.30
2023-04-27T10:02:23.614Z,13.29
2023-04-27T10:03:48.321Z,13.34
2023-04-27T10:05:09.236Z,13.52
2023-04-27T10:06:41.962Z,13.53
2023-04-27T10:07:44.493Z,13.66
2023-04-27T10:08:46.537Z,13.66
2023-04-27T10:09:49.941Z,13.59
2023-04-27T10:10:53.373Z,13.23
2023-04-27T10:11:55.258Z,13.34
2023-04-27T10:12:58.128Z,13.36
2023-04-27T10:13:59.697Z,13.49
2023-04-27T10:15:14.835Z,13.59
2023-04-27T10:16:17.514Z,13.67
2023-04-27T10:17:19.899Z,13.74
2023-04-27T10:18:31.233Z,13.84
2023-04-27T10:19:32.857Z,13.70
2023-04-27T10:20:36.603Z,13.70
2023-04-27T10:21:38.573Z,13.66
2023-04-27T10:22:47.640Z,13.80
2023-04-27T10:23:52.330Z,13.81
2023-04-27T10:24:54.003Z,13.71
2023-04-27T10:25:55.807Z,13.67
2023-04-27T10:27:01.401Z,13.66
2023-04-27T10:28:03.173Z,13.65
2023-04-27T10:29:07.336Z,13.58
2023-04-27T10:30:11.051Z,13.52
2023-04-27T10:31:12.818Z,13.56
2023-04-27T10:32:26.103Z,13.34
2023-04-27T10:33:27.782Z,13.20
2023-04-27T10:34:29.451Z,13.29
2023-04-27T10:35:43.291Z,13.28
2023-04-27T10:36:44.881Z,13.26
2023-04-27T10:37:47.687Z,13.28
2023-04-27T10:38:50.107Z,13.32
2023-04-27T10:39:53.547Z,13.32
2023-04-27T10:41:05.070Z,13.39
2023-04-27T10:42:06.969Z,13.42
2023-04-27T10:43:16.001Z,13.53
2023-04-27T10:44:30.780Z,13.69
2023-04-27T10:45:34.131Z,13.76
2023-04-27T10:46:36.541Z,13.83
2023-04-27T10:47:39.998Z,13.42
2023-04-27T10:48:42.514Z,13.09
2023-04-27T10:49:44.172Z,13.05
2023-04-27T10:50:46.984Z,13.11
2023-04-27T10:51:50.034Z,13.18
2023-04-27T10:52:51.675Z,13.22
2023-04-27T10:53:53.882Z,13.29
2023-04-27T10:54:55.530Z,13.46
2023-04-27T10:55:57.140Z,13.45
2023-04-27T10:57:08.666Z,13.38
2023-04-27T10:58:10.331Z,13.50
2023-04-27T10:59:12.122Z,13.55
2023-04-27T11:00:16.453Z,13.69
2023-04-27T11:01:29.241Z,13.84
2023-04-27T11:02:31.423Z,13.83
2023-04-27T11:03:33.256Z,14.03
2023-04-27T11:04:38.889Z,14.10
2023-04-27T11:05:42.957Z,14.27
2023-04-27T11:06:46.032Z,14.23
2023-04-27T11:07:48.049Z,14.30
2023-04-27T11:08:49.738Z,14.03
2023-04-27T11:09:51.449Z,13.89
2023-04-27T11:10:53.080Z,13.70
2023-04-27T11:11:54.728Z,13.30
2023-04-27T11:12:56.933Z,13.40
2023-04-27T11:13:58.603Z,13.49
2023-04-27T11:15:00.212Z,13.58
2023-04-27T11:16:01.853Z,13.43
2023-04-27T11:17:06.373Z,13.38
2023-04-27T11:18:08.038Z,13.34
2023-04-27T11:19:09.760Z,13.29
2023-04-27T11:20:11.342Z,13.35
2023-04-27T11:21:13.477Z,13.36
2023-04-27T11:22:18.807Z,13.38
2023-04-27T11:23:25.234Z,13.56
2023-04-27T11:24:27.215Z,13.66
2023-04-27T11:25:29.275Z,13.74
2023-04-27T11:26:31.120Z,13.83
2023-04-27T11:27:39.288Z,13.93
2023-04-27T11:28:41.452Z,13.87
2023-04-27T11:29:43.125Z,14.06
2023-04-27T11:30:44.735Z,14.21
2023-04-27T11:31:49.326Z,14.30
2023-04-27T11:32:51.376Z,14.13
2023-04-27T11:33:53.912Z,14.06
2023-04-27T11:34:57.207Z,14.01
2023-04-27T11:36:00.117Z,14.03
2023-04-27T11:38:17.121Z,13.69
2023-04-27T11:39:19.705Z,13.46
2023-04-27T11:40:23.270Z,13.28
2023-04-27T11:41:33.786Z,13.12
2023-04-27T11:42:35.414Z,13.04
2023-04-27T11:43:40.797Z,13.16
2023-04-27T11:44:42.444Z,13.28
2023-04-27T11:45:45.109Z,13.36
2023-04-27T11:46:47.743Z,13.32
2023-04-27T11:47:49.479Z,13.42
2023-04-27T11:48:51.444Z,13.53
2023-04-27T11:49:57.741Z,13.62
2023-04-27T11:51:00.572Z,13.70
2023-04-27T11:52:02.785Z,13.86
2023-04-27T11:53:04.384Z,13.87
2023-04-27T11:54:06.873Z,13.90
2023-04-27T11:55:10.771Z,13.89
2023-04-27T11:56:12.435Z,13.99
2023-04-27T11:57:14.079Z,13.93
2023-04-27T11:58:16.225Z,13.97
2023-04-27T11:59:21.760Z,14.06
2023-04-27T12:00:24.353Z,14.18
2023-04-27T12:01:37.061Z,14.20
2023-04-27T12:02:40.507Z,14.20
2023-04-27T12:03:42.317Z,14.28
2023-04-27T12:04:44.225Z,14.18
2023-04-27T12:05:50.184Z,14.28
2023-04-27T12:06:51.891Z,14.23
2023-04-27T12:07:53.485Z,14.32
2023-04-27T12:08:57.861Z,14.31
2023-04-27T12:10:00.901Z,14.35
2023-04-27T12:11:02.962Z,14.42
2023-04-27T12:12:04.630Z,14.49
2023-04-27T12:13:06.249Z,14.49
2023-04-27T12:14:08.121Z,14.61
2023-04-27T12:15:10.260Z,14.67
2023-04-27T12:16:11.955Z,14.68
2023-04-27T12:17:13.673Z,14.74
2023-04-27T12:18:15.436Z,14.62
2023-04-27T12:19:17.611Z,14.69
2023-04-27T12:20:19.190Z,14.31
2023-04-27T12:21:21.371Z,14.35
2023-04-27T12:22:23.067Z,14.18
2023-04-27T12:23:24.715Z,14.13
2023-04-27T12:24:26.473Z,14.07
2023-04-27T12:25:28.215Z,14.07
2023-04-27T12:26:29.982Z,13.94
2023-04-27T12:27:32.263Z,13.86
2023-04-27T12:28:33.882Z,13.90
2023-04-27T12:29:35.702Z,13.89
2023-04-27T12:30:37.421Z,13.94
2023-04-27T12:31:39.173Z,14.07
2023-04-27T12:32:41.379Z,14.11
2023-04-27T12:33:43.141Z,14.04
2023-04-27T12:34:44.761Z,14.00
2023-04-27T12:35:46.399Z,14.07
2023-04-27T12:36:48.101Z,14.06
2023-04-27T12:37:50.161Z,14.13
2023-04-27T12:38:51.914Z,14.11
2023-04-27T12:39:53.592Z,14.09
2023-04-27T12:40:55.215Z,14.03
2023-04-27T12:41:58.257Z,14.14
2023-04-27T12:43:01.276Z,14.13
2023-04-27T12:44:03.106Z,14.14
2023-04-27T12:45:05.359Z,14.17
2023-04-27T12:46:07.082Z,14.21
2023-04-27T12:47:08.725Z,14.28
2023-04-27T12:48:10.325Z,14.31
2023-04-27T12:49:12.621Z,14.28
2023-04-27T12:50:15.796Z,14.32
2023-04-27T12:51:17.502Z,14.35
2023-04-27T12:52:19.517Z,14.35
2023-04-27T12:53:21.873Z,14.11
2023-04-27T12:54:23.490Z,14.09
2023-04-27T12:55:32.966Z,13.99
2023-04-27T12:56:35.885Z,14.06
2023-04-27T12:57:37.516Z,14.06
2023-04-27T12:58:40.000Z,14.17
2023-04-27T12:59:41.992Z,14.20
2023-04-27T13:00:43.582Z,14.32
2023-04-27T13:01:45.871Z,14.38
2023-04-27T13:02:48.106Z,14.37
2023-04-27T13:03:49.841Z,14.45
2023-04-27T13:04:51.790Z,14.41
2023-04-27T13:05:54.346Z,14.55
2023-04-27T13:06:56.102Z,14.60
2023-04-27T13:07:57.769Z,14.57
2023-04-27T13:08:59.687Z,14.54
2023-04-27T13:10:01.353Z,14.52
2023-04-27T13:11:03.006Z,14.58
2023-04-27T13:12:04.730Z,14.48
2023-04-27T13:13:06.885Z,14.45
2023-04-27T13:14:09.892Z,14.48
2023-04-27T13:15:11.663Z,14.57
2023-04-27T13:16:13.415Z,14.67
2023-04-27T13:17:15.045Z,14.61
2023-04-27T13:18:16.691Z,14.62
2023-04-27T13:19:18.339Z,14.65
2023-04-27T13:20:20.367Z,14.45
2023-04-27T13:21:22.232Z,14.32
2023-04-27T13:22:23.838Z,14.25
2023-04-27T13:23:26.931Z,14.13
2023-04-27T13:24:29.451Z,14.14
2023-04-27T13:25:31.074Z,14.16
2023-04-27T13:26:33.537Z,14.23
2023-04-27T13:27:35.703Z,14.21
2023-04-27T13:28:37.308Z,14.17
2023-04-27T13:29:38.893Z,14.34
2023-04-27T13:30:40.527Z,14.38
2023-04-27T13:31:42.935Z,14.42
2023-04-27T13:32:44.606Z,14.52
2023-04-27T13:33:46.681Z,14.54
2023-04-27T13:34:48.275Z,14.52
2023-04-27T13:35:53.031Z,14.46
2023-04-27T13:36:54.774Z,14.44
2023-04-27T13:37:56.982Z,14.49
2023-04-27T13:38:58.662Z,14.57